sensor_id;sensor_type;location;lat;lon;timestamp;P1;durP1;ratioP1;P2;durP2;ratioP2
27357;SDS011;14831;50.474;7.616;2023-02-01T00:02:00;0.7;;;0.7;;
27357;SDS011;14831;50.474;7.616;2023-02-01T00:06:58;0.7;;;0.7;;
27357;SDS011;14831;50.474;7.616;2023-02-01T00:11:58;0.7;;;0.7;;
27357;SDS011;14831;50.474;7.616;2023-02-01T00:16:58;0.7;;;0.7;;
27357;SDS011;14831;50.474;7.616;2023-02-01T00:21:58;0.7;;;0.7;;
27357;SDS011;14831;50.474;7.616;2023-02-01T00:26:58;0.7;;;0.7;;
27357;SDS011;14831;50.474;7.616;2023-02-01T00:31:58;0.7;;;0.7;;
27357;SDS011;14831;50.474;7.616;2023-02-01T00:36:58;0.7;;;0.7;;
27357;SDS011;14831;50.474;7.616;2023-02-01T00:42:00;0.7;;;0.7;;
27357;SDS011;14831;50.474;7.616;2023-02-01T00:46:59;0.7;;;0.7;;
27357;SDS011;14831;50.474;7.616;2023-02-01T00:51:58;0.7;;;0.7;;
27357;SDS011;14831;50.474;7.616;2023-02-01T00:56:58;0.7;;;0.7;;
27357;SDS011;14831;50.474;7.616;2023-02-01T01:01:58;0.7;;;0.7;;
27357;SDS011;14831;50.474;7.616;2023-02-01T01:06:58;0.7;;;0.7;;
27357;SDS011;14831;50.474;7.616;2023-02-01T01:11:58;0.7;;;0.7;;
27357;SDS011;14831;50.474;7.616;2023-02-01T01:16:58;0.7;;;0.7;;
27357;SDS011;14831;50.474;7.616;2023-02-01T01:21:58;0.7;;;0.7;;
27357;SDS011;14831;50.474;7.616;2023-02-01T01:26:58;0.7;;;0.7;;
27357;SDS011;14831;50.474;7.616;2023-02-01T01:31:58;0.7;;;0.7;;
27357;SDS011;14831;50.474;7.616;2023-02-01T01:36:58;0.7;;;0.7;;
27357;SDS011;14831;50.474;7.616;2023-02-01T01:41:58;0.7;;;0.7;;
27357;SDS011;14831;50.474;7.616;2023-02-01T01:46:58;0.7;;;0.7;;
27357;SDS011;14831;50.474;7.616;2023-02-01T01:52:01;0.7;;;0.7;;
27357;SDS011;14831;50.474;7.616;2023-02-01T01:57:01;0.7;;;0.7;;
27357;SDS011;14831;50.474;7.616;2023-02-01T02:01:58;0.7;;;0.7;;
27357;SDS011;14831;50.474;7.616;2023-02-01T02:07:01;0.7;;;0.7;;
27357;SDS011;14831;50.474;7.616;2023-02-01T02:11:59;0.7;;;0.7;;
27357;SDS011;14831;50.474;7.616;2023-02-01T02:17:07;0.7;;;0.7;;
27357;SDS011;14831;50.474;7.616;2023-02-01T02:22:17;0.7;;;0.7;;
27357;SDS011;14831;50.474;7.616;2023-02-01T02:27:03;0.7;;;0.7;;
27357;SDS011;14831;50.474;7.616;2023-02-01T02:32:12;0.7;;;0.7;;
27357;SDS011;14831;50.474;7.616;2023-02-01T02:37:05;0.7;;;0.7;;
27357;SDS011;14831;50.474;7.616;2023-02-01T02:42:01;0.7;;;0.7;;
27357;SDS011;14831;50.474;7.616;2023-02-01T02:47:03;0.7;;;0.7;;
27357;SDS011;14831;50.474;7.616;2023-02-01T02:52:04;0.6;;;0.6;;
27357;SDS011;14831;50.474;7.616;2023-02-01T02:57:00;0.6;;;0.6;;
27357;SDS011;14831;50.474;7.616;2023-02-01T03:01:58;0.6;;;0.6;;
27357;SDS011;14831;50.474;7.616;2023-02-01T03:07:13;0.6;;;0.6;;
27357;SDS011;14831;50.474;7.616;2023-02-01T03:12:02;0.6;;;0.6;;
27357;SDS011;14831;50.474;7.616;2023-02-01T03:17:01;0.6;;;0.6;;
27357;SDS011;14831;50.474;7.616;2023-02-01T03:22:01;0.5;;;0.5;;
27357;SDS011;14831;50.474;7.616;2023-02-01T03:27:03;0.5;;;0.5;;
27357;SDS011;14831;50.474;7.616;2023-02-01T03:31:58;0.5;;;0.5;;
27357;SDS011;14831;50.474;7.616;2023-02-01T03:37:01;0.5;;;0.5;;
27357;SDS011;14831;50.474;7.616;2023-02-01T03:42:01;0.5;;;0.5;;
27357;SDS011;14831;50.474;7.616;2023-02-01T03:47:02;0.5;;;0.5;;
27357;SDS011;14831;50.474;7.616;2023-02-01T03:51:59;0.6;;;0.6;;
27357;SDS011;14831;50.474;7.616;2023-02-01T03:57:01;0.6;;;0.6;;
27357;SDS011;14831;50.474;7.616;2023-02-01T04:01:58;0.6;;;0.6;;
27357;SDS011;14831;50.474;7.616;2023-02-01T04:06:58;0.6;;;0.6;;
27357;SDS011;14831;50.474;7.616;2023-02-01T04:11:58;0.6;;;0.6;;
27357;SDS011;14831;50.474;7.616;2023-02-01T04:16:58;0.6;;;0.6;;
27357;SDS011;14831;50.474;7.616;2023-02-01T04:21:58;0.6;;;0.6;;
27357;SDS011;14831;50.474;7.616;2023-02-01T04:26:58;0.6;;;0.6;;
27357;SDS011;14831;50.474;7.616;2023-02-01T04:31:58;0.6;;;0.6;;
27357;SDS011;14831;50.474;7.616;2023-02-01T04:36:58;0.6;;;0.6;;
27357;SDS011;14831;50.474;7.616;2023-02-01T04:41:58;0.6;;;0.6;;
27357;SDS011;14831;50.474;7.616;2023-02-01T04:46:58;0.6;;;0.6;;
27357;SDS011;14831;50.474;7.616;2023-02-01T04:51:58;0.7;;;0.7;;
27357;SDS011;14831;50.474;7.616;2023-02-01T04:56:58;0.7;;;0.7;;
27357;SDS011;14831;50.474;7.616;2023-02-01T05:01:58;0.7;;;0.7;;
27357;SDS011;14831;50.474;7.616;2023-02-01T05:06:58;0.7;;;0.7;;
27357;SDS011;14831;50.474;7.616;2023-02-01T05:11:58;0.7;;;0.7;;
27357;SDS011;14831;50.474;7.616;2023-02-01T05:16:58;0.7;;;0.7;;
27357;SDS011;14831;50.474;7.616;2023-02-01T05:21:58;0.6;;;0.6;;
27357;SDS011;14831;50.474;7.616;2023-02-01T05:26:58;0.6;;;0.6;;
27357;SDS011;14831;50.474;7.616;2023-02-01T05:31:58;0.6;;;0.6;;
27357;SDS011;14831;50.474;7.616;2023-02-01T05:36:58;0.6;;;0.6;;
27357;SDS011;14831;50.474;7.616;2023-02-01T05:41:58;0.6;;;0.6;;
27357;SDS011;14831;50.474;7.616;2023-02-01T05:46:58;0.6;;;0.6;;
27357;SDS011;14831;50.474;7.616;2023-02-01T05:51:58;0.9;;;0.7;;
27357;SDS011;14831;50.474;7.616;2023-02-01T05:56:58;0.9;;;0.7;;
27357;SDS011;14831;50.474;7.616;2023-02-01T06:01:58;0.9;;;0.7;;
27357;SDS011;14831;50.474;7.616;2023-02-01T06:06:58;0.9;;;0.7;;
27357;SDS011;14831;50.474;7.616;2023-02-01T06:11:58;0.9;;;0.7;;
27357;SDS011;14831;50.474;7.616;2023-02-01T06:16:59;0.9;;;0.7;;
27357;SDS011;14831;50.474;7.616;2023-02-01T06:21:58;0.6;;;0.6;;
27357;SDS011;14831;50.474;7.616;2023-02-01T06:26:58;0.6;;;0.6;;
27357;SDS011;14831;50.474;7.616;2023-02-01T06:31:58;0.6;;;0.6;;
27357;SDS011;14831;50.474;7.616;2023-02-01T06:36:58;0.6;;;0.6;;
27357;SDS011;14831;50.474;7.616;2023-02-01T06:41:58;0.6;;;0.6;;
27357;SDS011;14831;50.474;7.616;2023-02-01T06:46:58;0.6;;;0.6;;
27357;SDS011;14831;50.474;7.616;2023-02-01T06:51:58;0.6;;;0.6;;
27357;SDS011;14831;50.474;7.616;2023-02-01T06:56:59;0.6;;;0.6;;
27357;SDS011;14831;50.474;7.616;2023-02-01T07:01:58;0.6;;;0.6;;
27357;SDS011;14831;50.474;7.616;2023-02-01T07:06:58;0.6;;;0.6;;
27357;SDS011;14831;50.474;7.616;2023-02-01T07:11:58;0.6;;;0.6;;
27357;SDS011;14831;50.474;7.616;2023-02-01T07:16:58;0.6;;;0.6;;
27357;SDS011;14831;50.474;7.616;2023-02-01T07:21:58;0.6;;;0.6;;
27357;SDS011;14831;50.474;7.616;2023-02-01T07:26:58;0.6;;;0.6;;
27357;SDS011;14831;50.474;7.616;2023-02-01T07:31:58;0.6;;;0.6;;
27357;SDS011;14831;50.474;7.616;2023-02-01T07:36:58;0.6;;;0.6;;
27357;SDS011;14831;50.474;7.616;2023-02-01T07:41:58;0.6;;;0.6;;
27357;SDS011;14831;50.474;7.616;2023-02-01T07:46:58;0.6;;;0.6;;
27357;SDS011;14831;50.474;7.616;2023-02-01T07:51:58;0.9;;;0.8;;
27357;SDS011;14831;50.474;7.616;2023-02-01T07:56:58;0.9;;;0.8;;
27357;SDS011;14831;50.474;7.616;2023-02-01T08:01:58;0.9;;;0.8;;
27357;SDS011;14831;50.474;7.616;2023-02-01T08:06:58;0.9;;;0.8;;
27357;SDS011;14831;50.474;7.616;2023-02-01T08:11:58;0.9;;;0.8;;
27357;SDS011;14831;50.474;7.616;2023-02-01T08:16:58;0.9;;;0.8;;
27357;SDS011;14831;50.474;7.616;2023-02-01T08:21:58;0.9;;;0.7;;
27357;SDS011;14831;50.474;7.616;2023-02-01T08:27:00;0.9;;;0.7;;
27357;SDS011;14831;50.474;7.616;2023-02-01T08:31:58;0.9;;;0.7;;
27357;SDS011;14831;50.474;7.616;2023-02-01T08:36:58;0.9;;;0.7;;
27357;SDS011;14831;50.474;7.616;2023-02-01T08:41:58;0.9;;;0.7;;
27357;SDS011;14831;50.474;7.616;2023-02-01T08:46:58;0.9;;;0.7;;
27357;SDS011;14831;50.474;7.616;2023-02-01T08:51:58;0.7;;;0.7;;
27357;SDS011;14831;50.474;7.616;2023-02-01T08:56:58;0.7;;;0.7;;
27357;SDS011;14831;50.474;7.616;2023-02-01T09:01:58;0.7;;;0.7;;
27357;SDS011;14831;50.474;7.616;2023-02-01T09:06:58;0.7;;;0.7;;
27357;SDS011;14831;50.474;7.616;2023-02-01T09:11:58;0.7;;;0.7;;
27357;SDS011;14831;50.474;7.616;2023-02-01T09:16:58;0.7;;;0.7;;
27357;SDS011;14831;50.474;7.616;2023-02-01T09:21:58;1.0;;;0.6;;
27357;SDS011;14831;50.474;7.616;2023-02-01T09:26:58;1.0;;;0.6;;
27357;SDS011;14831;50.474;7.616;2023-02-01T09:31:58;1.0;;;0.6;;
27357;SDS011;14831;50.474;7.616;2023-02-01T09:36:58;1.0;;;0.6;;
27357;SDS011;14831;50.474;7.616;2023-02-01T09:42:06;1.0;;;0.6;;
27357;SDS011;14831;50.474;7.616;2023-02-01T09:46:59;1.0;;;0.6;;
27357;SDS011;14831;50.474;7.616;2023-02-01T09:52:02;1.1;;;0.8;;
27357;SDS011;14831;50.474;7.616;2023-02-01T09:57:03;1.1;;;0.8;;
27357;SDS011;14831;50.474;7.616;2023-02-01T10:01:59;1.1;;;0.8;;
27357;SDS011;14831;50.474;7.616;2023-02-01T10:07:08;1.1;;;0.8;;
27357;SDS011;14831;50.474;7.616;2023-02-01T10:12:48;1.1;;;0.8;;
27357;SDS011;14831;50.474;7.616;2023-02-01T10:17:06;1.1;;;0.8;;
27357;SDS011;14831;50.474;7.616;2023-02-01T10:22:02;0.8;;;0.8;;
27357;SDS011;14831;50.474;7.616;2023-02-01T10:27:02;0.8;;;0.8;;
27357;SDS011;14831;50.474;7.616;2023-02-01T10:31:58;0.8;;;0.8;;
27357;SDS011;14831;50.474;7.616;2023-02-01T10:37:01;0.8;;;0.8;;
27357;SDS011;14831;50.474;7.616;2023-02-01T10:41:58;0.8;;;0.8;;
27357;SDS011;14831;50.474;7.616;2023-02-01T10:46:58;0.8;;;0.8;;
27357;SDS011;14831;50.474;7.616;2023-02-01T10:52:05;1.2;;;1.0;;
27357;SDS011;14831;50.474;7.616;2023-02-01T10:56:59;1.2;;;1.0;;
27357;SDS011;14831;50.474;7.616;2023-02-01T11:02:00;1.2;;;1.0;;
27357;SDS011;14831;50.474;7.616;2023-02-01T11:07:06;1.2;;;1.0;;
27357;SDS011;14831;50.474;7.616;2023-02-01T11:11:59;1.2;;;1.0;;
27357;SDS011;14831;50.474;7.616;2023-02-01T11:17:01;1.2;;;1.0;;
27357;SDS011;14831;50.474;7.616;2023-02-01T11:21:59;0.8;;;0.8;;
27357;SDS011;14831;50.474;7.616;2023-02-01T11:27:01;0.8;;;0.8;;
27357;SDS011;14831;50.474;7.616;2023-02-01T11:31:59;0.8;;;0.8;;
27357;SDS011;14831;50.474;7.616;2023-02-01T11:37:00;0.8;;;0.8;;
27357;SDS011;14831;50.474;7.616;2023-02-01T11:42:03;0.8;;;0.8;;
27357;SDS011;14831;50.474;7.616;2023-02-01T11:47:38;0.8;;;0.8;;
27357;SDS011;14831;50.474;7.616;2023-02-01T11:52:09;1.0;;;0.9;;
27357;SDS011;14831;50.474;7.616;2023-02-01T11:57:09;1.0;;;0.9;;
27357;SDS011;14831;50.474;7.616;2023-02-01T12:02:14;1.0;;;0.9;;
27357;SDS011;14831;50.474;7.616;2023-02-01T12:07:04;1.0;;;0.9;;
27357;SDS011;14831;50.474;7.616;2023-02-01T12:12:06;1.0;;;0.9;;
27357;SDS011;14831;50.474;7.616;2023-02-01T12:17:14;1.0;;;0.9;;
27357;SDS011;14831;50.474;7.616;2023-02-01T12:22:10;1.4;;;1.3;;
27357;SDS011;14831;50.474;7.616;2023-02-01T12:27:08;1.4;;;1.3;;
27357;SDS011;14831;50.474;7.616;2023-02-01T12:32:06;1.4;;;1.3;;
27357;SDS011;14831;50.474;7.616;2023-02-01T12:37:07;1.4;;;1.3;;
27357;SDS011;14831;50.474;7.616;2023-02-01T12:42:02;1.4;;;1.3;;
27357;SDS011;14831;50.474;7.616;2023-02-01T12:47:03;1.4;;;1.3;;
27357;SDS011;14831;50.474;7.616;2023-02-01T12:52:00;0.9;;;0.8;;
27357;SDS011;14831;50.474;7.616;2023-02-01T12:57:02;0.9;;;0.8;;
27357;SDS011;14831;50.474;7.616;2023-02-01T13:02:05;0.9;;;0.8;;
27357;SDS011;14831;50.474;7.616;2023-02-01T13:07:05;0.9;;;0.8;;
27357;SDS011;14831;50.474;7.616;2023-02-01T13:12:03;0.9;;;0.8;;
27357;SDS011;14831;50.474;7.616;2023-02-01T13:17:02;0.9;;;0.8;;
27357;SDS011;14831;50.474;7.616;2023-02-01T13:22:02;0.9;;;0.9;;
27357;SDS011;14831;50.474;7.616;2023-02-01T13:26:59;0.9;;;0.9;;
27357;SDS011;14831;50.474;7.616;2023-02-01T13:32:16;0.9;;;0.9;;
27357;SDS011;14831;50.474;7.616;2023-02-01T13:37:09;0.9;;;0.9;;
27357;SDS011;14831;50.474;7.616;2023-02-01T13:42:01;0.9;;;0.9;;
27357;SDS011;14831;50.474;7.616;2023-02-01T13:47:02;0.9;;;0.9;;
27357;SDS011;14831;50.474;7.616;2023-02-01T13:51:59;1.0;;;0.8;;
27357;SDS011;14831;50.474;7.616;2023-02-01T13:57:00;1.0;;;0.8;;
27357;SDS011;14831;50.474;7.616;2023-02-01T14:02:36;1.0;;;0.8;;
27357;SDS011;14831;50.474;7.616;2023-02-01T14:06:58;1.0;;;0.8;;
27357;SDS011;14831;50.474;7.616;2023-02-01T14:12:43;1.0;;;0.8;;
27357;SDS011;14831;50.474;7.616;2023-02-01T14:17:33;1.0;;;0.8;;
27357;SDS011;14831;50.474;7.616;2023-02-01T14:21:59;1.2;;;0.9;;
27357;SDS011;14831;50.474;7.616;2023-02-01T14:27:00;1.2;;;0.9;;
27357;SDS011;14831;50.474;7.616;2023-02-01T14:32:03;1.2;;;0.9;;
27357;SDS011;14831;50.474;7.616;2023-02-01T14:37:01;1.2;;;0.9;;
27357;SDS011;14831;50.474;7.616;2023-02-01T14:42:03;1.2;;;0.9;;
27357;SDS011;14831;50.474;7.616;2023-02-01T14:47:05;1.2;;;0.9;;
27357;SDS011;14831;50.474;7.616;2023-02-01T14:51:59;0.8;;;0.8;;
27357;SDS011;14831;50.474;7.616;2023-02-01T14:56:59;0.8;;;0.8;;
27357;SDS011;14831;50.474;7.616;2023-02-01T15:01:58;0.8;;;0.8;;
27357;SDS011;14831;50.474;7.616;2023-02-01T15:07:05;0.8;;;0.8;;
27357;SDS011;14831;50.474;7.616;2023-02-01T15:12:02;0.8;;;0.8;;
27357;SDS011;14831;50.474;7.616;2023-02-01T15:16:59;0.8;;;0.8;;
27357;SDS011;14831;50.474;7.616;2023-02-01T15:21:58;0.9;;;0.8;;
27357;SDS011;14831;50.474;7.616;2023-02-01T15:27:04;0.9;;;0.8;;
27357;SDS011;14831;50.474;7.616;2023-02-01T15:31:59;0.9;;;0.8;;
27357;SDS011;14831;50.474;7.616;2023-02-01T15:37:04;0.9;;;0.8;;
27357;SDS011;14831;50.474;7.616;2023-02-01T15:42:00;0.9;;;0.8;;
27357;SDS011;14831;50.474;7.616;2023-02-01T15:46:59;0.9;;;0.8;;
27357;SDS011;14831;50.474;7.616;2023-02-01T15:52:00;1.2;;;1.0;;
27357;SDS011;14831;50.474;7.616;2023-02-01T15:57:01;1.2;;;1.0;;
27357;SDS011;14831;50.474;7.616;2023-02-01T16:01:58;1.2;;;1.0;;
27357;SDS011;14831;50.474;7.616;2023-02-01T16:07:00;1.2;;;1.0;;
27357;SDS011;14831;50.474;7.616;2023-02-01T16:12:00;1.2;;;1.0;;
27357;SDS011;14831;50.474;7.616;2023-02-01T16:16:59;1.2;;;1.0;;
27357;SDS011;14831;50.474;7.616;2023-02-01T16:21:58;0.9;;;0.8;;
27357;SDS011;14831;50.474;7.616;2023-02-01T16:26:58;0.9;;;0.8;;
27357;SDS011;14831;50.474;7.616;2023-02-01T16:31:59;0.9;;;0.8;;
27357;SDS011;14831;50.474;7.616;2023-02-01T16:36:58;0.9;;;0.8;;
27357;SDS011;14831;50.474;7.616;2023-02-01T16:41:58;0.9;;;0.8;;
27357;SDS011;14831;50.474;7.616;2023-02-01T16:46:58;0.9;;;0.8;;
27357;SDS011;14831;50.474;7.616;2023-02-01T16:51:58;0.9;;;0.9;;
27357;SDS011;14831;50.474;7.616;2023-02-01T16:56:58;0.9;;;0.9;;
27357;SDS011;14831;50.474;7.616;2023-02-01T17:01:58;0.9;;;0.9;;
27357;SDS011;14831;50.474;7.616;2023-02-01T17:07:00;0.9;;;0.9;;
27357;SDS011;14831;50.474;7.616;2023-02-01T17:11:58;0.9;;;0.9;;
27357;SDS011;14831;50.474;7.616;2023-02-01T17:16:59;0.9;;;0.9;;
27357;SDS011;14831;50.474;7.616;2023-02-01T17:21:58;0.9;;;0.9;;
27357;SDS011;14831;50.474;7.616;2023-02-01T17:26:58;0.9;;;0.9;;
27357;SDS011;14831;50.474;7.616;2023-02-01T17:31:58;0.9;;;0.9;;
27357;SDS011;14831;50.474;7.616;2023-02-01T17:36:58;0.9;;;0.9;;
27357;SDS011;14831;50.474;7.616;2023-02-01T17:41:59;0.9;;;0.9;;
27357;SDS011;14831;50.474;7.616;2023-02-01T17:46:58;0.9;;;0.9;;
27357;SDS011;14831;50.474;7.616;2023-02-01T17:51:58;1.1;;;1.0;;
27357;SDS011;14831;50.474;7.616;2023-02-01T17:57:00;1.1;;;1.0;;
27357;SDS011;14831;50.474;7.616;2023-02-01T18:01:58;1.1;;;1.0;;
27357;SDS011;14831;50.474;7.616;2023-02-01T18:06:59;1.1;;;1.0;;
27357;SDS011;14831;50.474;7.616;2023-02-01T18:11:58;1.1;;;1.0;;
27357;SDS011;14831;50.474;7.616;2023-02-01T18:16:58;1.1;;;1.0;;
27357;SDS011;14831;50.474;7.616;2023-02-01T18:22:01;1.0;;;0.9;;
27357;SDS011;14831;50.474;7.616;2023-02-01T18:26:59;1.0;;;0.9;;
27357;SDS011;14831;50.474;7.616;2023-02-01T18:31:58;1.0;;;0.9;;
27357;SDS011;14831;50.474;7.616;2023-02-01T18:36:59;1.0;;;0.9;;
27357;SDS011;14831;50.474;7.616;2023-02-01T18:41:58;1.0;;;0.9;;
27357;SDS011;14831;50.474;7.616;2023-02-01T18:46:58;1.0;;;0.9;;
27357;SDS011;14831;50.474;7.616;2023-02-01T18:51:58;1.1;;;1.0;;
27357;SDS011;14831;50.474;7.616;2023-02-01T18:56:58;1.1;;;1.0;;
27357;SDS011;14831;50.474;7.616;2023-02-01T19:01:58;1.1;;;1.0;;
27357;SDS011;14831;50.474;7.616;2023-02-01T19:06:58;1.1;;;1.0;;
27357;SDS011;14831;50.474;7.616;2023-02-01T19:11:58;1.1;;;1.0;;
27357;SDS011;14831;50.474;7.616;2023-02-01T19:16:58;1.1;;;1.0;;
27357;SDS011;14831;50.474;7.616;2023-02-01T19:21:58;0.9;;;0.9;;
27357;SDS011;14831;50.474;7.616;2023-02-01T19:26:58;0.9;;;0.9;;
27357;SDS011;14831;50.474;7.616;2023-02-01T19:31:58;0.9;;;0.9;;
27357;SDS011;14831;50.474;7.616;2023-02-01T19:36:59;0.9;;;0.9;;
27357;SDS011;14831;50.474;7.616;2023-02-01T19:41:58;0.9;;;0.9;;
27357;SDS011;14831;50.474;7.616;2023-02-01T19:46:58;0.9;;;0.9;;
27357;SDS011;14831;50.474;7.616;2023-02-01T19:51:58;1.1;;;0.9;;
27357;SDS011;14831;50.474;7.616;2023-02-01T19:56:58;1.1;;;0.9;;
27357;SDS011;14831;50.474;7.616;2023-02-01T20:01:58;1.1;;;0.9;;
27357;SDS011;14831;50.474;7.616;2023-02-01T20:06:58;1.1;;;0.9;;
27357;SDS011;14831;50.474;7.616;2023-02-01T20:11:58;1.1;;;0.9;;
27357;SDS011;14831;50.474;7.616;2023-02-01T20:16:58;1.1;;;0.9;;
27357;SDS011;14831;50.474;7.616;2023-02-01T20:21:58;1.2;;;1.0;;
27357;SDS011;14831;50.474;7.616;2023-02-01T20:26:58;1.2;;;1.0;;
27357;SDS011;14831;50.474;7.616;2023-02-01T20:31:58;1.2;;;1.0;;
27357;SDS011;14831;50.474;7.616;2023-02-01T20:36:58;1.2;;;1.0;;
27357;SDS011;14831;50.474;7.616;2023-02-01T20:41:58;1.2;;;1.0;;
27357;SDS011;14831;50.474;7.616;2023-02-01T20:46:58;1.2;;;1.0;;
27357;SDS011;14831;50.474;7.616;2023-02-01T20:51:58;1.0;;;0.9;;
27357;SDS011;14831;50.474;7.616;2023-02-01T20:56:58;1.0;;;0.9;;
27357;SDS011;14831;50.474;7.616;2023-02-01T21:01:58;1.0;;;0.9;;
27357;SDS011;14831;50.474;7.616;2023-02-01T21:06:59;1.0;;;0.9;;
27357;SDS011;14831;50.474;7.616;2023-02-01T21:11:58;1.0;;;0.9;;
27357;SDS011;14831;50.474;7.616;2023-02-01T21:16:58;1.0;;;0.9;;
27357;SDS011;14831;50.474;7.616;2023-02-01T21:21:58;1.1;;;1.1;;
27357;SDS011;14831;50.474;7.616;2023-02-01T21:26:58;1.1;;;1.1;;
27357;SDS011;14831;50.474;7.616;2023-02-01T21:31:58;1.1;;;1.1;;
27357;SDS011;14831;50.474;7.616;2023-02-01T21:36:58;1.1;;;1.1;;
27357;SDS011;14831;50.474;7.616;2023-02-01T21:41:58;1.1;;;1.1;;
27357;SDS011;14831;50.474;7.616;2023-02-01T21:46:58;1.1;;;1.1;;
27357;SDS011;14831;50.474;7.616;2023-02-01T21:51:58;1.2;;;1.1;;
27357;SDS011;14831;50.474;7.616;2023-02-01T21:56:58;1.2;;;1.1;;
27357;SDS011;14831;50.474;7.616;2023-02-01T22:01:58;1.2;;;1.1;;
27357;SDS011;14831;50.474;7.616;2023-02-01T22:06:58;1.2;;;1.1;;
27357;SDS011;14831;50.474;7.616;2023-02-01T22:11:58;1.2;;;1.1;;
27357;SDS011;14831;50.474;7.616;2023-02-01T22:16:58;1.2;;;1.1;;
27357;SDS011;14831;50.474;7.616;2023-02-01T22:21:58;0.8;;;0.8;;
27357;SDS011;14831;50.474;7.616;2023-02-01T22:26:58;0.8;;;0.8;;
27357;SDS011;14831;50.474;7.616;2023-02-01T22:31:58;0.8;;;0.8;;
27357;SDS011;14831;50.474;7.616;2023-02-01T22:36:58;0.8;;;0.8;;
27357;SDS011;14831;50.474;7.616;2023-02-01T22:41:58;0.8;;;0.8;;
27357;SDS011;14831;50.474;7.616;2023-02-01T22:46:58;0.8;;;0.8;;
27357;SDS011;14831;50.474;7.616;2023-02-01T22:51:58;0.9;;;0.9;;
27357;SDS011;14831;50.474;7.616;2023-02-01T22:56:58;0.9;;;0.9;;
27357;SDS011;14831;50.474;7.616;2023-02-01T23:01:58;0.9;;;0.9;;
27357;SDS011;14831;50.474;7.616;2023-02-01T23:06:58;0.9;;;0.9;;
27357;SDS011;14831;50.474;7.616;2023-02-01T23:11:58;0.9;;;0.9;;
27357;SDS011;14831;50.474;7.616;2023-02-01T23:16:58;0.9;;;0.9;;
27357;SDS011;14831;50.474;7.616;2023-02-01T23:21:58;1.3;;;1.1;;
27357;SDS011;14831;50.474;7.616;2023-02-01T23:26:58;1.3;;;1.1;;
27357;SDS011;14831;50.474;7.616;2023-02-01T23:31:58;1.3;;;1.1;;
27357;SDS011;14831;50.474;7.616;2023-02-01T23:36:58;1.3;;;1.1;;
27357;SDS011;14831;50.474;7.616;2023-02-01T23:41:59;1.3;;;1.1;;
27357;SDS011;14831;50.474;7.616;2023-02-01T23:46:58;1.3;;;1.1;;
27357;SDS011;14831;50.474;7.616;2023-02-01T23:51:58;1.3;;;1.2;;
27357;SDS011;14831;50.474;7.616;2023-02-01T23:56:58;1.3;;;1.2;;
